Messwerte Neiva

Temperatur

Temperatur
°C
1510974000 22.00 22.00 26
1510977600 23.00 23.00
1510981200 0.00 0.00
1510984800 1.00 1.00
1510988400 2.00 2.00
1510992000 3.00 3.00
1510995600 4.00 4.00
1510999200 5.00 5.00
1511002800 6.00 6.00 23
1511006400 7.00 7.00 22
1511010000 8.00 8.00 22
1511013600 9.00 9.00 22
1511017200 10.00 10.00 23
1511020800 11.00 11.00 25
1511024400 12.00 12.00 26
1511028000 13.00 13.00 27
1511031600 14.00 14.00 28
1511035200 15.00 15.00 28
1511038800 16.00 16.00 28
1511042400 17.00 17.00
1511046000 18.00 18.00 27
1511049600 19.00 19.00 25
1511053200 20.00 20.00 25
1511056800 21.00 21.00 24

Aktuellste Messwerte

Wettercharakter
Wetter: wechselnd bewölkt
Temperatur
24 °C
Feuchtigkeit
94 %
Wind
5 km/h, -
Luftdruck
1011 hPa
Messzeit: 18. November 2017, 21.00Datenquelle: METAR

Weitere Messstationen in der Nähe

Messstation Temperatur Entfernung
Cali 22 °C 136 km
Pereira 20 °C 211 km
Bogotá 13 °C 231 km
Rio Negro 14 °C 351 km

Wind

Windrichtung Böen Mittelwind
° km/h km/h
1510974000 22.00 21.00 - 22.00 5
1510977600 23.00 22.00 - 23.00
1510981200 0.00 23.00 - 0.00
1510984800 1.00 0.00 - 1.00
1510988400 2.00 1.00 - 2.00
1510992000 3.00 2.00 - 3.00
1510995600 4.00 3.00 - 4.00
1510999200 5.00 4.00 - 5.00
1511002800 6.00 5.00 - 6.00 360° 15
1511006400 7.00 6.00 - 7.00 10° 15
1511010000 8.00 7.00 - 8.00 350° 15
1511013600 9.00 8.00 - 9.00 10° 10
1511017200 10.00 9.00 - 10.00 30° 5
1511020800 11.00 10.00 - 11.00 5
1511024400 12.00 11.00 - 12.00 60° 10
1511028000 13.00 12.00 - 13.00 20° 10
1511031600 14.00 13.00 - 14.00 5
1511035200 15.00 14.00 - 15.00 40° 10
1511038800 16.00 15.00 - 16.00 360° 5
1511042400 17.00 16.00 - 17.00
1511046000 18.00 17.00 - 18.00 5
1511049600 19.00 18.00 - 19.00 0
1511053200 20.00 19.00 - 20.00 5
1511056800 21.00 20.00 - 21.00 5

Ihre Wetterstation

Fehlt Ihre Wetterstation auf unserem Portal?

Schreiben Sie an network@meteonews.ch

Klima

Wann ist es am wärmsten? Wann regnet es am wenigsten? Unsere Klimadaten geben Auskunft.